sensor_id;sensor_type;location;lat;lon;timestamp;P1;durP1;ratioP1;P2;durP2;ratioP2
6842;SDS011;3460;52.028;8.916;2023-08-31T00:02:19;15.37;;;10.73;;
6842;SDS011;3460;52.028;8.916;2023-08-31T00:04:45;13.97;;;11.23;;
6842;SDS011;3460;52.028;8.916;2023-08-31T00:07:13;17.50;;;11.20;;
6842;SDS011;3460;52.028;8.916;2023-08-31T00:09:41;14.57;;;10.87;;
6842;SDS011;3460;52.028;8.916;2023-08-31T00:12:08;17.77;;;11.80;;
6842;SDS011;3460;52.028;8.916;2023-08-31T00:14:35;16.20;;;11.17;;
6842;SDS011;3460;52.028;8.916;2023-08-31T00:17:02;17.53;;;10.77;;
6842;SDS011;3460;52.028;8.916;2023-08-31T00:19:29;19.10;;;10.73;;
6842;SDS011;3460;52.028;8.916;2023-08-31T00:21:56;16.77;;;10.60;;
6842;SDS011;3460;52.028;8.916;2023-08-31T00:24:24;20.10;;;11.47;;
6842;SDS011;3460;52.028;8.916;2023-08-31T00:26:55;17.90;;;10.80;;
6842;SDS011;3460;52.028;8.916;2023-08-31T00:29:21;19.70;;;11.27;;
6842;SDS011;3460;52.028;8.916;2023-08-31T00:31:50;14.97;;;10.10;;
6842;SDS011;3460;52.028;8.916;2023-08-31T00:34:18;17.63;;;10.43;;
6842;SDS011;3460;52.028;8.916;2023-08-31T00:36:45;17.60;;;11.40;;
6842;SDS011;3460;52.028;8.916;2023-08-31T00:39:12;15.50;;;11.37;;
6842;SDS011;3460;52.028;8.916;2023-08-31T00:41:40;17.80;;;11.57;;
6842;SDS011;3460;52.028;8.916;2023-08-31T00:44:07;17.87;;;11.80;;
6842;SDS011;3460;52.028;8.916;2023-08-31T00:46:34;19.80;;;11.10;;
6842;SDS011;3460;52.028;8.916;2023-08-31T00:49:01;15.10;;;10.20;;
6842;SDS011;3460;52.028;8.916;2023-08-31T00:51:29;15.77;;;10.50;;
6842;SDS011;3460;52.028;8.916;2023-08-31T00:53:56;15.77;;;11.07;;
6842;SDS011;3460;52.028;8.916;2023-08-31T00:56:24;16.83;;;10.27;;
6842;SDS011;3460;52.028;8.916;2023-08-31T00:58:52;15.80;;;10.83;;
6842;SDS011;3460;52.028;8.916;2023-08-31T01:01:22;12.83;;;9.97;;
6842;SDS011;3460;52.028;8.916;2023-08-31T01:03:55;14.50;;;10.40;;
6842;SDS011;3460;52.028;8.916;2023-08-31T01:06:36;14.00;;;10.23;;
6842;SDS011;3460;52.028;8.916;2023-08-31T01:09:14;15.37;;;10.83;;
6842;SDS011;3460;52.028;8.916;2023-08-31T01:11:52;12.70;;;9.33;;
6842;SDS011;3460;52.028;8.916;2023-08-31T01:14:27;13.23;;;9.40;;
6842;SDS011;3460;52.028;8.916;2023-08-31T01:17:01;13.70;;;10.43;;
6842;SDS011;3460;52.028;8.916;2023-08-31T01:19:32;13.77;;;9.13;;
6842;SDS011;3460;52.028;8.916;2023-08-31T01:22:07;13.53;;;10.37;;
6842;SDS011;3460;52.028;8.916;2023-08-31T01:24:40;15.30;;;9.63;;
6842;SDS011;3460;52.028;8.916;2023-08-31T01:27:07;14.77;;;9.03;;
6842;SDS011;3460;52.028;8.916;2023-08-31T01:29:34;16.33;;;9.60;;
6842;SDS011;3460;52.028;8.916;2023-08-31T01:32:04;11.50;;;8.97;;
6842;SDS011;3460;52.028;8.916;2023-08-31T01:34:32;13.90;;;9.70;;
6842;SDS011;3460;52.028;8.916;2023-08-31T01:36:59;12.63;;;8.87;;
6842;SDS011;3460;52.028;8.916;2023-08-31T01:39:35;12.80;;;8.13;;
6842;SDS011;3460;52.028;8.916;2023-08-31T01:42:09;14.37;;;9.30;;
6842;SDS011;3460;52.028;8.916;2023-08-31T01:44:39;13.67;;;8.80;;
6842;SDS011;3460;52.028;8.916;2023-08-31T01:47:07;12.17;;;8.33;;
6842;SDS011;3460;52.028;8.916;2023-08-31T01:49:37;12.60;;;7.97;;
6842;SDS011;3460;52.028;8.916;2023-08-31T01:52:04;14.23;;;8.33;;
6842;SDS011;3460;52.028;8.916;2023-08-31T01:54:32;18.27;;;8.63;;
6842;SDS011;3460;52.028;8.916;2023-08-31T01:56:59;13.17;;;8.43;;
6842;SDS011;3460;52.028;8.916;2023-08-31T01:59:29;16.87;;;7.73;;
6842;SDS011;3460;52.028;8.916;2023-08-31T02:01:56;16.83;;;7.80;;
6842;SDS011;3460;52.028;8.916;2023-08-31T02:04:23;14.17;;;7.73;;
6842;SDS011;3460;52.028;8.916;2023-08-31T02:06:50;11.63;;;7.40;;
6842;SDS011;3460;52.028;8.916;2023-08-31T02:09:17;11.50;;;7.73;;
6842;SDS011;3460;52.028;8.916;2023-08-31T02:11:44;15.63;;;8.43;;
6842;SDS011;3460;52.028;8.916;2023-08-31T02:14:11;10.33;;;7.60;;
6842;SDS011;3460;52.028;8.916;2023-08-31T02:16:39;11.67;;;7.63;;
6842;SDS011;3460;52.028;8.916;2023-08-31T02:19:06;12.23;;;7.97;;
6842;SDS011;3460;52.028;8.916;2023-08-31T02:21:33;14.50;;;7.90;;
6842;SDS011;3460;52.028;8.916;2023-08-31T02:24:00;10.33;;;7.27;;
6842;SDS011;3460;52.028;8.916;2023-08-31T02:26:28;10.97;;;7.57;;
6842;SDS011;3460;52.028;8.916;2023-08-31T02:28:55;13.43;;;7.53;;
6842;SDS011;3460;52.028;8.916;2023-08-31T02:31:22;15.63;;;8.50;;
6842;SDS011;3460;52.028;8.916;2023-08-31T02:33:50;10.20;;;7.20;;
6842;SDS011;3460;52.028;8.916;2023-08-31T02:36:18;12.63;;;7.47;;
6842;SDS011;3460;52.028;8.916;2023-08-31T02:38:45;13.53;;;7.67;;
6842;SDS011;3460;52.028;8.916;2023-08-31T02:41:14;10.70;;;7.27;;
6842;SDS011;3460;52.028;8.916;2023-08-31T02:43:41;12.40;;;7.83;;
6842;SDS011;3460;52.028;8.916;2023-08-31T02:46:08;10.20;;;6.87;;
6842;SDS011;3460;52.028;8.916;2023-08-31T02:48:35;12.83;;;7.53;;
6842;SDS011;3460;52.028;8.916;2023-08-31T02:51:03;15.87;;;8.00;;
6842;SDS011;3460;52.028;8.916;2023-08-31T02:53:30;12.50;;;8.03;;
6842;SDS011;3460;52.028;8.916;2023-08-31T02:55:57;14.23;;;8.13;;
6842;SDS011;3460;52.028;8.916;2023-08-31T02:58:24;12.37;;;8.03;;
6842;SDS011;3460;52.028;8.916;2023-08-31T03:00:51;12.73;;;8.57;;
6842;SDS011;3460;52.028;8.916;2023-08-31T03:03:18;12.53;;;8.13;;
6842;SDS011;3460;52.028;8.916;2023-08-31T03:05:45;17.40;;;8.63;;
6842;SDS011;3460;52.028;8.916;2023-08-31T03:08:13;11.83;;;8.33;;
6842;SDS011;3460;52.028;8.916;2023-08-31T03:10:40;13.60;;;8.93;;
6842;SDS011;3460;52.028;8.916;2023-08-31T03:13:07;15.77;;;8.63;;
6842;SDS011;3460;52.028;8.916;2023-08-31T03:15:34;15.10;;;10.60;;
6842;SDS011;3460;52.028;8.916;2023-08-31T03:18:00;21.53;;;13.47;;
6842;SDS011;3460;52.028;8.916;2023-08-31T03:20:27;17.53;;;11.57;;
6842;SDS011;3460;52.028;8.916;2023-08-31T03:22:55;16.60;;;11.30;;
6842;SDS011;3460;52.028;8.916;2023-08-31T03:25:23;17.93;;;11.60;;
6842;SDS011;3460;52.028;8.916;2023-08-31T03:27:50;17.63;;;11.70;;
6842;SDS011;3460;52.028;8.916;2023-08-31T03:30:17;19.83;;;11.90;;
6842;SDS011;3460;52.028;8.916;2023-08-31T03:32:44;18.50;;;11.93;;
6842;SDS011;3460;52.028;8.916;2023-08-31T03:35:10;17.97;;;12.20;;
6842;SDS011;3460;52.028;8.916;2023-08-31T03:37:37;21.00;;;12.67;;
6842;SDS011;3460;52.028;8.916;2023-08-31T03:40:05;22.40;;;13.17;;
6842;SDS011;3460;52.028;8.916;2023-08-31T03:42:34;18.80;;;13.13;;
6842;SDS011;3460;52.028;8.916;2023-08-31T03:45:01;19.03;;;14.23;;
6842;SDS011;3460;52.028;8.916;2023-08-31T03:47:28;19.27;;;13.57;;
6842;SDS011;3460;52.028;8.916;2023-08-31T03:49:55;18.03;;;13.37;;
6842;SDS011;3460;52.028;8.916;2023-08-31T03:52:22;22.97;;;13.70;;
6842;SDS011;3460;52.028;8.916;2023-08-31T03:54:49;19.17;;;13.67;;
6842;SDS011;3460;52.028;8.916;2023-08-31T03:57:17;22.33;;;14.00;;
6842;SDS011;3460;52.028;8.916;2023-08-31T03:59:46;23.47;;;14.90;;
6842;SDS011;3460;52.028;8.916;2023-08-31T04:02:13;22.67;;;14.03;;
6842;SDS011;3460;52.028;8.916;2023-08-31T04:04:40;20.27;;;13.37;;
6842;SDS011;3460;52.028;8.916;2023-08-31T04:07:07;21.57;;;13.97;;
6842;SDS011;3460;52.028;8.916;2023-08-31T04:09:34;21.90;;;13.53;;
6842;SDS011;3460;52.028;8.916;2023-08-31T04:12:00;22.63;;;13.47;;
6842;SDS011;3460;52.028;8.916;2023-08-31T04:14:27;25.70;;;14.30;;
6842;SDS011;3460;52.028;8.916;2023-08-31T04:16:56;18.83;;;13.83;;
6842;SDS011;3460;52.028;8.916;2023-08-31T04:19:22;19.00;;;14.33;;
6842;SDS011;3460;52.028;8.916;2023-08-31T04:21:49;20.60;;;13.00;;
6842;SDS011;3460;52.028;8.916;2023-08-31T04:24:16;20.47;;;13.63;;
6842;SDS011;3460;52.028;8.916;2023-08-31T04:26:43;20.80;;;13.07;;
6842;SDS011;3460;52.028;8.916;2023-08-31T04:29:10;19.00;;;12.90;;
6842;SDS011;3460;52.028;8.916;2023-08-31T04:31:37;19.13;;;13.07;;
6842;SDS011;3460;52.028;8.916;2023-08-31T04:34:05;18.67;;;13.47;;
6842;SDS011;3460;52.028;8.916;2023-08-31T04:36:32;19.90;;;13.00;;
6842;SDS011;3460;52.028;8.916;2023-08-31T04:38:59;36.53;;;27.00;;
6842;SDS011;3460;52.028;8.916;2023-08-31T04:41:26;38.10;;;23.20;;
6842;SDS011;3460;52.028;8.916;2023-08-31T04:43:53;21.83;;;15.13;;
6842;SDS011;3460;52.028;8.916;2023-08-31T04:46:20;21.03;;;14.63;;
6842;SDS011;3460;52.028;8.916;2023-08-31T04:48:46;18.97;;;14.03;;
6842;SDS011;3460;52.028;8.916;2023-08-31T04:51:30;19.80;;;13.57;;
6842;SDS011;3460;52.028;8.916;2023-08-31T04:53:58;17.43;;;11.30;;
6842;SDS011;3460;52.028;8.916;2023-08-31T04:56:26;18.17;;;12.33;;
6842;SDS011;3460;52.028;8.916;2023-08-31T04:58:58;16.40;;;12.10;;
6842;SDS011;3460;52.028;8.916;2023-08-31T05:01:25;41.00;;;27.97;;
6842;SDS011;3460;52.028;8.916;2023-08-31T05:03:52;40.73;;;28.43;;
6842;SDS011;3460;52.028;8.916;2023-08-31T05:06:19;18.67;;;13.20;;
6842;SDS011;3460;52.028;8.916;2023-08-31T05:08:47;19.33;;;13.33;;
6842;SDS011;3460;52.028;8.916;2023-08-31T05:11:14;22.17;;;14.47;;
6842;SDS011;3460;52.028;8.916;2023-08-31T05:13:41;18.20;;;14.03;;
6842;SDS011;3460;52.028;8.916;2023-08-31T05:16:08;20.20;;;14.37;;
6842;SDS011;3460;52.028;8.916;2023-08-31T05:18:35;23.37;;;15.93;;
6842;SDS011;3460;52.028;8.916;2023-08-31T05:21:02;20.63;;;14.40;;
6842;SDS011;3460;52.028;8.916;2023-08-31T05:23:29;21.03;;;14.87;;
6842;SDS011;3460;52.028;8.916;2023-08-31T05:25:57;21.90;;;15.70;;
6842;SDS011;3460;52.028;8.916;2023-08-31T05:28:26;21.47;;;15.73;;
6842;SDS011;3460;52.028;8.916;2023-08-31T05:30:55;19.33;;;15.67;;
6842;SDS011;3460;52.028;8.916;2023-08-31T05:33:23;22.87;;;17.07;;
6842;SDS011;3460;52.028;8.916;2023-08-31T05:35:52;22.80;;;16.30;;
6842;SDS011;3460;52.028;8.916;2023-08-31T05:38:19;18.93;;;16.30;;
6842;SDS011;3460;52.028;8.916;2023-08-31T05:40:46;25.97;;;16.83;;
6842;SDS011;3460;52.028;8.916;2023-08-31T05:43:14;23.57;;;16.27;;
6842;SDS011;3460;52.028;8.916;2023-08-31T05:45:41;42.50;;;28.87;;
6842;SDS011;3460;52.028;8.916;2023-08-31T05:48:08;21.87;;;16.63;;
6842;SDS011;3460;52.028;8.916;2023-08-31T05:50:35;21.23;;;16.17;;
6842;SDS011;3460;52.028;8.916;2023-08-31T05:53:03;20.67;;;15.63;;
6842;SDS011;3460;52.028;8.916;2023-08-31T05:55:30;18.43;;;14.57;;
6842;SDS011;3460;52.028;8.916;2023-08-31T05:57:57;19.77;;;15.20;;
6842;SDS011;3460;52.028;8.916;2023-08-31T06:00:27;17.27;;;15.30;;
6842;SDS011;3460;52.028;8.916;2023-08-31T06:02:53;20.80;;;14.47;;
6842;SDS011;3460;52.028;8.916;2023-08-31T06:05:20;27.03;;;18.10;;
6842;SDS011;3460;52.028;8.916;2023-08-31T06:07:47;23.70;;;17.47;;
6842;SDS011;3460;52.028;8.916;2023-08-31T06:10:14;18.70;;;14.57;;
6842;SDS011;3460;52.028;8.916;2023-08-31T06:12:42;18.70;;;14.03;;
6842;SDS011;3460;52.028;8.916;2023-08-31T06:15:09;17.87;;;14.20;;
6842;SDS011;3460;52.028;8.916;2023-08-31T06:17:37;19.00;;;14.93;;
6842;SDS011;3460;52.028;8.916;2023-08-31T06:20:05;22.73;;;14.57;;
6842;SDS011;3460;52.028;8.916;2023-08-31T06:22:33;20.50;;;14.53;;
6842;SDS011;3460;52.028;8.916;2023-08-31T06:25:00;18.60;;;14.60;;
6842;SDS011;3460;52.028;8.916;2023-08-31T06:27:28;19.67;;;14.57;;
6842;SDS011;3460;52.028;8.916;2023-08-31T06:29:54;20.50;;;13.70;;
6842;SDS011;3460;52.028;8.916;2023-08-31T06:32:22;19.50;;;13.57;;
6842;SDS011;3460;52.028;8.916;2023-08-31T06:34:50;28.47;;;21.60;;
6842;SDS011;3460;52.028;8.916;2023-08-31T06:37:17;23.97;;;17.77;;
6842;SDS011;3460;52.028;8.916;2023-08-31T06:39:45;17.77;;;13.37;;
6842;SDS011;3460;52.028;8.916;2023-08-31T06:42:12;16.13;;;12.97;;
6842;SDS011;3460;52.028;8.916;2023-08-31T06:44:39;17.63;;;12.90;;
6842;SDS011;3460;52.028;8.916;2023-08-31T06:47:05;20.53;;;12.70;;
6842;SDS011;3460;52.028;8.916;2023-08-31T06:49:33;18.53;;;13.53;;
6842;SDS011;3460;52.028;8.916;2023-08-31T06:52:01;17.73;;;13.10;;
6842;SDS011;3460;52.028;8.916;2023-08-31T06:54:28;18.50;;;13.20;;
6842;SDS011;3460;52.028;8.916;2023-08-31T06:56:55;18.83;;;13.57;;
6842;SDS011;3460;52.028;8.916;2023-08-31T06:59:23;18.70;;;12.67;;
6842;SDS011;3460;52.028;8.916;2023-08-31T07:01:49;16.90;;;12.20;;
6842;SDS011;3460;52.028;8.916;2023-08-31T07:04:16;15.50;;;12.03;;
6842;SDS011;3460;52.028;8.916;2023-08-31T07:06:43;14.07;;;12.07;;
6842;SDS011;3460;52.028;8.916;2023-08-31T07:09:11;14.50;;;12.10;;
6842;SDS011;3460;52.028;8.916;2023-08-31T07:11:38;15.23;;;12.00;;
6842;SDS011;3460;52.028;8.916;2023-08-31T07:14:05;15.03;;;11.63;;
6842;SDS011;3460;52.028;8.916;2023-08-31T07:16:32;16.07;;;11.90;;
6842;SDS011;3460;52.028;8.916;2023-08-31T07:18:58;16.50;;;12.00;;
6842;SDS011;3460;52.028;8.916;2023-08-31T07:21:25;16.00;;;11.60;;
6842;SDS011;3460;52.028;8.916;2023-08-31T07:23:52;14.37;;;12.23;;
6842;SDS011;3460;52.028;8.916;2023-08-31T07:26:21;15.83;;;11.73;;
6842;SDS011;3460;52.028;8.916;2023-08-31T07:28:48;14.87;;;10.80;;
6842;SDS011;3460;52.028;8.916;2023-08-31T07:31:15;14.20;;;10.97;;
6842;SDS011;3460;52.028;8.916;2023-08-31T07:33:42;13.20;;;10.70;;
6842;SDS011;3460;52.028;8.916;2023-08-31T07:36:09;13.10;;;11.37;;
6842;SDS011;3460;52.028;8.916;2023-08-31T07:38:35;14.63;;;10.77;;
6842;SDS011;3460;52.028;8.916;2023-08-31T07:41:02;14.97;;;10.30;;
6842;SDS011;3460;52.028;8.916;2023-08-31T07:43:31;12.50;;;10.20;;
6842;SDS011;3460;52.028;8.916;2023-08-31T07:45:58;11.13;;;9.83;;
6842;SDS011;3460;52.028;8.916;2023-08-31T07:48:25;12.20;;;10.33;;
6842;SDS011;3460;52.028;8.916;2023-08-31T07:50:52;12.93;;;10.37;;
6842;SDS011;3460;52.028;8.916;2023-08-31T07:53:18;15.63;;;10.30;;
6842;SDS011;3460;52.028;8.916;2023-08-31T07:55:52;11.37;;;9.80;;
6842;SDS011;3460;52.028;8.916;2023-08-31T07:58:20;10.60;;;8.67;;
6842;SDS011;3460;52.028;8.916;2023-08-31T08:00:48;12.20;;;8.50;;
6842;SDS011;3460;52.028;8.916;2023-08-31T08:03:15;11.33;;;9.30;;
6842;SDS011;3460;52.028;8.916;2023-08-31T08:05:42;12.27;;;9.07;;
6842;SDS011;3460;52.028;8.916;2023-08-31T08:08:09;10.13;;;8.40;;
6842;SDS011;3460;52.028;8.916;2023-08-31T08:10:36;11.40;;;8.87;;
6842;SDS011;3460;52.028;8.916;2023-08-31T08:13:03;10.83;;;7.83;;
6842;SDS011;3460;52.028;8.916;2023-08-31T08:15:30;9.30;;;8.20;;
6842;SDS011;3460;52.028;8.916;2023-08-31T08:17:58;10.97;;;9.40;;
6842;SDS011;3460;52.028;8.916;2023-08-31T08:20:25;10.30;;;8.40;;
6842;SDS011;3460;52.028;8.916;2023-08-31T08:22:53;10.90;;;8.80;;
6842;SDS011;3460;52.028;8.916;2023-08-31T08:25:21;11.77;;;8.83;;
6842;SDS011;3460;52.028;8.916;2023-08-31T08:27:48;9.03;;;7.03;;
6842;SDS011;3460;52.028;8.916;2023-08-31T08:30:14;10.90;;;7.67;;
6842;SDS011;3460;52.028;8.916;2023-08-31T08:32:41;16.17;;;9.53;;
6842;SDS011;3460;52.028;8.916;2023-08-31T08:35:10;8.87;;;6.97;;
6842;SDS011;3460;52.028;8.916;2023-08-31T08:37:36;7.27;;;6.57;;
6842;SDS011;3460;52.028;8.916;2023-08-31T08:40:04;10.53;;;7.60;;
6842;SDS011;3460;52.028;8.916;2023-08-31T08:42:31;10.70;;;7.50;;
6842;SDS011;3460;52.028;8.916;2023-08-31T08:45:04;9.33;;;7.30;;
6842;SDS011;3460;52.028;8.916;2023-08-31T08:47:34;8.10;;;7.03;;
6842;SDS011;3460;52.028;8.916;2023-08-31T08:50:01;9.57;;;7.33;;
6842;SDS011;3460;52.028;8.916;2023-08-31T08:52:30;8.33;;;7.23;;
6842;SDS011;3460;52.028;8.916;2023-08-31T08:54:57;9.07;;;7.53;;
6842;SDS011;3460;52.028;8.916;2023-08-31T08:57:26;11.97;;;7.37;;
6842;SDS011;3460;52.028;8.916;2023-08-31T08:59:53;10.27;;;7.83;;
6842;SDS011;3460;52.028;8.916;2023-08-31T09:02:20;12.67;;;7.63;;
6842;SDS011;3460;52.028;8.916;2023-08-31T09:04:47;10.80;;;7.53;;
6842;SDS011;3460;52.028;8.916;2023-08-31T09:07:16;9.57;;;8.43;;
6842;SDS011;3460;52.028;8.916;2023-08-31T09:09:49;9.83;;;8.00;;
6842;SDS011;3460;52.028;8.916;2023-08-31T09:12:16;10.00;;;8.37;;
6842;SDS011;3460;52.028;8.916;2023-08-31T09:14:43;11.37;;;8.50;;
6842;SDS011;3460;52.028;8.916;2023-08-31T09:17:10;10.17;;;9.07;;
6842;SDS011;3460;52.028;8.916;2023-08-31T09:19:37;10.17;;;8.70;;
6842;SDS011;3460;52.028;8.916;2023-08-31T09:22:04;10.47;;;7.53;;
6842;SDS011;3460;52.028;8.916;2023-08-31T09:24:39;8.50;;;7.60;;
6842;SDS011;3460;52.028;8.916;2023-08-31T09:27:09;11.20;;;8.00;;
6842;SDS011;3460;52.028;8.916;2023-08-31T09:29:37;8.50;;;7.47;;
6842;SDS011;3460;52.028;8.916;2023-08-31T09:32:05;11.63;;;6.87;;
6842;SDS011;3460;52.028;8.916;2023-08-31T09:34:34;8.83;;;6.53;;
6842;SDS011;3460;52.028;8.916;2023-08-31T09:37:05;8.17;;;6.70;;
6842;SDS011;3460;52.028;8.916;2023-08-31T09:39:37;8.23;;;6.90;;
6842;SDS011;3460;52.028;8.916;2023-08-31T09:42:05;28.17;;;13.27;;
6842;SDS011;3460;52.028;8.916;2023-08-31T09:44:33;10.07;;;6.90;;
6842;SDS011;3460;52.028;8.916;2023-08-31T09:47:06;7.40;;;5.33;;
6842;SDS011;3460;52.028;8.916;2023-08-31T09:49:34;8.10;;;5.33;;
6842;SDS011;3460;52.028;8.916;2023-08-31T09:52:02;8.73;;;4.97;;
6842;SDS011;3460;52.028;8.916;2023-08-31T09:54:30;5.83;;;5.17;;
6842;SDS011;3460;52.028;8.916;2023-08-31T09:56:58;14.17;;;10.30;;
6842;SDS011;3460;52.028;8.916;2023-08-31T09:59:27;8.57;;;7.30;;
6842;SDS011;3460;52.028;8.916;2023-08-31T10:01:56;7.83;;;6.27;;
6842;SDS011;3460;52.028;8.916;2023-08-31T10:04:22;10.20;;;6.80;;
6842;SDS011;3460;52.028;8.916;2023-08-31T10:06:50;5.60;;;4.13;;
6842;SDS011;3460;52.028;8.916;2023-08-31T10:09:17;5.93;;;3.97;;
6842;SDS011;3460;52.028;8.916;2023-08-31T10:11:45;12.50;;;11.30;;
6842;SDS011;3460;52.028;8.916;2023-08-31T10:14:13;17.40;;;11.63;;
6842;SDS011;3460;52.028;8.916;2023-08-31T10:16:41;21.63;;;12.60;;
6842;SDS011;3460;52.028;8.916;2023-08-31T10:19:12;7.90;;;7.10;;
6842;SDS011;3460;52.028;8.916;2023-08-31T10:21:39;6.60;;;5.53;;
6842;SDS011;3460;52.028;8.916;2023-08-31T10:24:09;5.67;;;3.90;;
6842;SDS011;3460;52.028;8.916;2023-08-31T10:26:36;7.57;;;4.50;;
6842;SDS011;3460;52.028;8.916;2023-08-31T10:29:02;5.57;;;3.63;;
6842;SDS011;3460;52.028;8.916;2023-08-31T10:31:30;7.10;;;4.33;;
6842;SDS011;3460;52.028;8.916;2023-08-31T10:33:58;6.63;;;3.63;;
6842;SDS011;3460;52.028;8.916;2023-08-31T10:36:36;7.83;;;3.60;;
6842;SDS011;3460;52.028;8.916;2023-08-31T10:39:10;5.93;;;4.53;;
6842;SDS011;3460;52.028;8.916;2023-08-31T10:41:38;6.20;;;4.70;;
6842;SDS011;3460;52.028;8.916;2023-08-31T10:44:18;5.30;;;3.73;;
6842;SDS011;3460;52.028;8.916;2023-08-31T10:46:46;5.70;;;3.93;;
6842;SDS011;3460;52.028;8.916;2023-08-31T10:49:14;5.47;;;3.50;;
6842;SDS011;3460;52.028;8.916;2023-08-31T10:51:44;6.87;;;3.43;;
6842;SDS011;3460;52.028;8.916;2023-08-31T10:54:12;7.83;;;4.03;;
6842;SDS011;3460;52.028;8.916;2023-08-31T10:59:40;7.50;;;4.20;;
6842;SDS011;3460;52.028;8.916;2023-08-31T11:02:09;9.53;;;4.50;;
6842;SDS011;3460;52.028;8.916;2023-08-31T11:07:23;6.57;;;4.30;;
6842;SDS011;3460;52.028;8.916;2023-08-31T11:09:51;5.03;;;4.00;;
6842;SDS011;3460;52.028;8.916;2023-08-31T11:12:21;9.43;;;5.20;;
6842;SDS011;3460;52.028;8.916;2023-08-31T11:14:48;6.27;;;4.50;;
6842;SDS011;3460;52.028;8.916;2023-08-31T11:17:15;5.70;;;4.00;;
6842;SDS011;3460;52.028;8.916;2023-08-31T11:19:42;7.17;;;3.87;;
6842;SDS011;3460;52.028;8.916;2023-08-31T11:22:10;6.57;;;4.27;;
6842;SDS011;3460;52.028;8.916;2023-08-31T11:24:39;5.87;;;4.10;;
6842;SDS011;3460;52.028;8.916;2023-08-31T11:27:07;8.33;;;4.47;;
6842;SDS011;3460;52.028;8.916;2023-08-31T11:29:36;6.57;;;4.20;;
6842;SDS011;3460;52.028;8.916;2023-08-31T11:32:04;7.53;;;4.90;;
6842;SDS011;3460;52.028;8.916;2023-08-31T11:34:31;7.30;;;4.20;;
6842;SDS011;3460;52.028;8.916;2023-08-31T11:36:58;5.07;;;2.87;;
6842;SDS011;3460;52.028;8.916;2023-08-31T11:39:25;5.10;;;2.20;;
6842;SDS011;3460;52.028;8.916;2023-08-31T11:41:53;3.43;;;1.60;;
6842;SDS011;3460;52.028;8.916;2023-08-31T11:44:21;14.30;;;7.73;;
6842;SDS011;3460;52.028;8.916;2023-08-31T11:46:48;5.77;;;3.50;;
6842;SDS011;3460;52.028;8.916;2023-08-31T11:49:15;6.30;;;4.03;;
6842;SDS011;3460;52.028;8.916;2023-08-31T11:51:43;3.70;;;3.30;;
6842;SDS011;3460;52.028;8.916;2023-08-31T11:54:11;4.93;;;3.67;;
6842;SDS011;3460;52.028;8.916;2023-08-31T11:56:38;5.87;;;3.23;;
6842;SDS011;3460;52.028;8.916;2023-08-31T11:59:08;3.63;;;2.30;;
6842;SDS011;3460;52.028;8.916;2023-08-31T12:01:37;5.10;;;2.00;;
6842;SDS011;3460;52.028;8.916;2023-08-31T12:04:12;5.17;;;1.60;;
6842;SDS011;3460;52.028;8.916;2023-08-31T12:06:40;4.60;;;1.77;;
6842;SDS011;3460;52.028;8.916;2023-08-31T12:09:08;2.80;;;1.20;;
6842;SDS011;3460;52.028;8.916;2023-08-31T12:11:35;4.90;;;2.30;;
6842;SDS011;3460;52.028;8.916;2023-08-31T12:14:02;5.93;;;5.00;;
6842;SDS011;3460;52.028;8.916;2023-08-31T12:16:34;4.20;;;2.40;;
6842;SDS011;3460;52.028;8.916;2023-08-31T12:19:02;2.90;;;1.80;;
6842;SDS011;3460;52.028;8.916;2023-08-31T12:21:30;2.87;;;1.37;;
6842;SDS011;3460;52.028;8.916;2023-08-31T12:23:57;3.13;;;1.17;;
6842;SDS011;3460;52.028;8.916;2023-08-31T12:26:24;1.57;;;1.00;;
6842;SDS011;3460;52.028;8.916;2023-08-31T12:28:51;1.27;;;0.90;;
6842;SDS011;3460;52.028;8.916;2023-08-31T12:31:18;1.10;;;0.80;;
6842;SDS011;3460;52.028;8.916;2023-08-31T12:33:46;1.43;;;0.80;;
6842;SDS011;3460;52.028;8.916;2023-08-31T12:36:13;1.83;;;0.60;;
6842;SDS011;3460;52.028;8.916;2023-08-31T12:38:40;1.83;;;1.00;;
6842;SDS011;3460;52.028;8.916;2023-08-31T12:41:07;1.03;;;0.80;;
6842;SDS011;3460;52.028;8.916;2023-08-31T12:43:34;2.67;;;0.70;;
6842;SDS011;3460;52.028;8.916;2023-08-31T12:46:01;2.27;;;0.90;;
6842;SDS011;3460;52.028;8.916;2023-08-31T12:48:30;3.53;;;1.30;;
6842;SDS011;3460;52.028;8.916;2023-08-31T12:50:59;3.60;;;1.27;;
6842;SDS011;3460;52.028;8.916;2023-08-31T12:53:26;2.60;;;1.20;;
6842;SDS011;3460;52.028;8.916;2023-08-31T12:55:53;3.20;;;1.37;;
6842;SDS011;3460;52.028;8.916;2023-08-31T12:58:20;2.57;;;1.23;;
6842;SDS011;3460;52.028;8.916;2023-08-31T13:00:47;2.80;;;1.53;;
6842;SDS011;3460;52.028;8.916;2023-08-31T13:03:17;4.77;;;1.20;;
6842;SDS011;3460;52.028;8.916;2023-08-31T13:05:44;2.23;;;1.40;;
6842;SDS011;3460;52.028;8.916;2023-08-31T13:08:12;1.00;;;0.80;;
6842;SDS011;3460;52.028;8.916;2023-08-31T13:10:39;5.87;;;1.10;;
6842;SDS011;3460;52.028;8.916;2023-08-31T13:13:06;2.00;;;1.10;;
6842;SDS011;3460;52.028;8.916;2023-08-31T13:15:33;2.47;;;0.97;;
6842;SDS011;3460;52.028;8.916;2023-08-31T13:18:00;2.80;;;1.03;;
6842;SDS011;3460;52.028;8.916;2023-08-31T13:20:27;2.30;;;0.97;;
6842;SDS011;3460;52.028;8.916;2023-08-31T13:22:54;1.37;;;0.90;;
6842;SDS011;3460;52.028;8.916;2023-08-31T13:25:22;2.27;;;1.07;;
6842;SDS011;3460;52.028;8.916;2023-08-31T13:27:48;1.97;;;0.90;;
6842;SDS011;3460;52.028;8.916;2023-08-31T13:30:15;1.83;;;1.10;;
6842;SDS011;3460;52.028;8.916;2023-08-31T13:32:42;1.73;;;1.03;;
6842;SDS011;3460;52.028;8.916;2023-08-31T13:35:09;2.83;;;1.13;;
6842;SDS011;3460;52.028;8.916;2023-08-31T13:37:36;2.50;;;1.20;;
6842;SDS011;3460;52.028;8.916;2023-08-31T13:40:03;2.17;;;1.10;;
6842;SDS011;3460;52.028;8.916;2023-08-31T13:42:35;3.83;;;1.27;;
6842;SDS011;3460;52.028;8.916;2023-08-31T13:45:04;2.97;;;1.70;;
6842;SDS011;3460;52.028;8.916;2023-08-31T13:47:32;5.30;;;1.57;;
6842;SDS011;3460;52.028;8.916;2023-08-31T13:49:59;3.20;;;1.27;;
6842;SDS011;3460;52.028;8.916;2023-08-31T13:52:29;1.67;;;1.20;;
6842;SDS011;3460;52.028;8.916;2023-08-31T13:54:55;2.43;;;1.10;;
6842;SDS011;3460;52.028;8.916;2023-08-31T13:57:22;3.50;;;1.20;;
6842;SDS011;3460;52.028;8.916;2023-08-31T13:59:50;2.57;;;1.40;;
6842;SDS011;3460;52.028;8.916;2023-08-31T14:02:17;5.43;;;1.50;;
6842;SDS011;3460;52.028;8.916;2023-08-31T14:04:44;4.80;;;1.60;;
6842;SDS011;3460;52.028;8.916;2023-08-31T14:07:11;5.23;;;1.53;;
6842;SDS011;3460;52.028;8.916;2023-08-31T14:09:38;5.80;;;1.70;;
6842;SDS011;3460;52.028;8.916;2023-08-31T14:12:05;1.70;;;1.13;;
6842;SDS011;3460;52.028;8.916;2023-08-31T14:14:32;3.97;;;1.63;;
6842;SDS011;3460;52.028;8.916;2023-08-31T14:17:02;4.50;;;1.50;;
6842;SDS011;3460;52.028;8.916;2023-08-31T14:19:29;2.30;;;1.40;;
6842;SDS011;3460;52.028;8.916;2023-08-31T14:21:57;2.37;;;1.40;;
6842;SDS011;3460;52.028;8.916;2023-08-31T14:24:23;2.03;;;1.30;;
6842;SDS011;3460;52.028;8.916;2023-08-31T14:26:50;2.37;;;1.40;;
6842;SDS011;3460;52.028;8.916;2023-08-31T14:29:17;1.77;;;1.03;;
6842;SDS011;3460;52.028;8.916;2023-08-31T14:31:44;1.80;;;1.13;;
6842;SDS011;3460;52.028;8.916;2023-08-31T14:34:12;3.33;;;1.40;;
6842;SDS011;3460;52.028;8.916;2023-08-31T14:36:39;1.50;;;1.03;;
6842;SDS011;3460;52.028;8.916;2023-08-31T14:39:06;1.90;;;1.23;;
6842;SDS011;3460;52.028;8.916;2023-08-31T14:41:33;2.80;;;1.40;;
6842;SDS011;3460;52.028;8.916;2023-08-31T14:43:59;3.90;;;1.50;;
6842;SDS011;3460;52.028;8.916;2023-08-31T14:46:26;1.90;;;1.47;;
6842;SDS011;3460;52.028;8.916;2023-08-31T14:48:53;2.70;;;1.40;;
6842;SDS011;3460;52.028;8.916;2023-08-31T14:51:21;1.90;;;1.23;;
6842;SDS011;3460;52.028;8.916;2023-08-31T14:53:48;2.23;;;1.53;;
6842;SDS011;3460;52.028;8.916;2023-08-31T14:56:15;2.13;;;1.00;;
6842;SDS011;3460;52.028;8.916;2023-08-31T14:58:42;3.70;;;1.20;;
6842;SDS011;3460;52.028;8.916;2023-08-31T15:01:08;2.33;;;1.20;;
6842;SDS011;3460;52.028;8.916;2023-08-31T15:03:36;4.60;;;1.50;;
6842;SDS011;3460;52.028;8.916;2023-08-31T15:06:02;1.80;;;1.13;;
6842;SDS011;3460;52.028;8.916;2023-08-31T15:08:35;2.23;;;1.30;;
6842;SDS011;3460;52.028;8.916;2023-08-31T15:11:05;1.90;;;1.23;;